Time;durP1;ratioP1;P1;durP2;ratioP2;P2;SDS_P1;SDS_P2;PMS_P1;PMS_P2;Temp;Humidity;BMP_temperature;BMP_pressure;BME280_temperature;BME280_humidity;BME280_pressure;Samples;Min_cycle;Max_cycle;Signal;HPM_P1;HPM_P2
2021/05/17 00:01:04;;;;;;;14.53;8.47;;;;;;;;;;5095085;28;20212;-52
2021/05/17 00:03:32;;;;;;;12.37;7.57;;;;;;;;;;5094921;28;20225;-52
2021/05/17 00:06:00;;;;;;;13.67;8.10;;;;;;;;;;5094807;28;20208;-54
2021/05/17 00:08:26;;;;;;;15.23;7.80;;;;;;;;;;5095529;28;20211;-58
2021/05/17 00:10:54;;;;;;;15.00;8.20;;;;;;;;;;5099789;28;20555;-57
2021/05/17 00:13:21;;;;;;;11.87;7.90;;;;;;;;;;5100131;28;20224;-59
2021/05/17 00:15:47;;;;;;;13.07;7.80;;;;;;;;;;5097761;28;20208;-52
2021/05/17 00:18:14;;;;;;;10.80;7.87;;;;;;;;;;5094394;28;20219;-55
2021/05/17 00:20:42;;;;;;;11.43;7.97;;;;;;;;;;5094743;28;20257;-52
2021/05/17 00:23:09;;;;;;;11.23;7.60;;;;;;;;;;5099867;28;20208;-57
2021/05/17 00:25:36;;;;;;;11.37;7.47;;;;;;;;;;5101644;28;20208;-59
2021/05/17 00:28:03;;;;;;;10.30;8.13;;;;;;;;;;5099062;28;20677;-59
2021/05/17 00:30:30;;;;;;;10.00;7.60;;;;;;;;;;5094795;28;20253;-55
2021/05/17 00:32:58;;;;;;;13.83;9.10;;;;;;;;;;5094471;28;20289;-56
2021/05/17 00:35:25;;;;;;;10.80;7.63;;;;;;;;;;5094351;28;20224;-54
2021/05/17 00:37:52;;;;;;;11.30;8.17;;;;;;;;;;5094310;28;20204;-55
2021/05/17 00:40:20;;;;;;;10.83;7.70;;;;;;;;;;5094034;28;20208;-54
2021/05/17 00:42:47;;;;;;;14.37;8.13;;;;;;;;;;5094106;28;20204;-56
2021/05/17 00:45:15;;;;;;;13.60;8.00;;;;;;;;;;5094138;28;20227;-57
2021/05/17 00:47:43;;;;;;;11.30;7.43;;;;;;;;;;5094278;28;20270;-55
2021/05/17 00:50:11;;;;;;;12.80;8.53;;;;;;;;;;5093907;28;20253;-53
2021/05/17 00:52:38;;;;;;;12.33;7.73;;;;;;;;;;5093971;28;20205;-53
2021/05/17 00:55:05;;;;;;;10.47;7.00;;;;;;;;;;5093879;28;20228;-55
2021/05/17 00:57:33;;;;;;;9.73;6.80;;;;;;;;;;5093577;28;20249;-57
2021/05/17 00:59:59;;;;;;;12.67;7.20;;;;;;;;;;5094657;28;20563;-55
2021/05/17 01:02:26;;;;;;;12.30;6.87;;;;;;;;;;5093761;28;20216;-55
2021/05/17 01:04:52;;;;;;;10.43;7.13;;;;;;;;;;5093668;28;20589;-56
2021/05/17 01:07:20;;;;;;;10.07;6.13;;;;;;;;;;5093690;28;20235;-53
2021/05/17 01:09:48;;;;;;;9.57;6.17;;;;;;;;;;5093467;28;20200;-57
2021/05/17 01:12:15;;;;;;;7.37;5.97;;;;;;;;;;5093446;28;20204;-52
2021/05/17 01:14:43;;;;;;;9.20;5.87;;;;;;;;;;5093458;28;20235;-55
2021/05/17 01:17:11;;;;;;;8.90;5.73;;;;;;;;;;5093752;28;20200;-57
2021/05/17 01:19:40;;;;;;;8.90;5.97;;;;;;;;;;5093425;28;20250;-55
2021/05/17 01:22:10;;;;;;;11.07;5.80;;;;;;;;;;5093566;28;20211;-58
2021/05/17 01:24:39;;;;;;;12.07;6.50;;;;;;;;;;5093293;28;20224;-56
2021/05/17 01:27:06;;;;;;;11.73;5.70;;;;;;;;;;5093792;28;20205;-56
2021/05/17 01:29:33;;;;;;;9.93;6.03;;;;;;;;;;5092402;28;20208;-54
2021/05/17 01:32:00;;;;;;;10.97;5.87;;;;;;;;;;5093193;28;20208;-52
2021/05/17 01:34:26;;;;;;;8.43;5.23;;;;;;;;;;5093031;28;20224;-55
2021/05/17 01:36:53;;;;;;;8.33;5.57;;;;;;;;;;5093246;28;20200;-58
2021/05/17 01:39:23;;;;;;;9.27;5.80;;;;;;;;;;5093022;28;20572;-51
2021/05/17 01:41:52;;;;;;;10.10;6.10;;;;;;;;;;5093039;28;20265;-56
2021/05/17 01:44:20;;;;;;;11.87;6.87;;;;;;;;;;5093364;28;20227;-51
2021/05/17 01:46:46;;;;;;;11.60;6.17;;;;;;;;;;5092792;28;20208;-49
2021/05/17 01:49:14;;;;;;;9.37;5.90;;;;;;;;;;5092972;28;20204;-54
2021/05/17 01:51:43;;;;;;;9.83;6.13;;;;;;;;;;5092541;28;20254;-52
2021/05/17 01:54:10;;;;;;;10.23;5.87;;;;;;;;;;5092588;28;20315;-52
2021/05/17 01:56:37;;;;;;;8.83;5.90;;;;;;;;;;5093138;28;20345;-52
2021/05/17 01:59:04;;;;;;;9.53;6.20;;;;;;;;;;5092761;28;20226;-54
2021/05/17 02:01:31;;;;;;;10.70;5.83;;;;;;;;;;5092545;28;20204;-59
2021/05/17 02:03:58;;;;;;;9.37;6.07;;;;;;;;;;5092834;28;20231;-54
2021/05/17 02:06:24;;;;;;;8.90;5.93;;;;;;;;;;5093073;28;20208;-49
2021/05/17 02:08:52;;;;;;;7.67;6.30;;;;;;;;;;5092515;28;20204;-52
2021/05/17 02:11:19;;;;;;;9.33;6.43;;;;;;;;;;5092514;28;20207;-52
2021/05/17 02:13:46;;;;;;;9.13;5.80;;;;;;;;;;5092630;28;20235;-56
2021/05/17 02:16:15;;;;;;;10.73;6.30;;;;;;;;;;5092775;28;20303;-56
2021/05/17 02:18:42;;;;;;;10.93;6.27;;;;;;;;;;5092668;28;20261;-58
2021/05/17 02:21:09;;;;;;;9.33;5.93;;;;;;;;;;5092279;28;20215;-51
2021/05/17 02:23:36;;;;;;;12.03;6.20;;;;;;;;;;5092299;28;20221;-57
2021/05/17 02:26:03;;;;;;;8.30;6.17;;;;;;;;;;5092267;28;20212;-54
2021/05/17 02:28:29;;;;;;;8.97;6.47;;;;;;;;;;5092373;28;20230;-51
2021/05/17 02:30:56;;;;;;;12.40;6.43;;;;;;;;;;5092064;28;20626;-53
2021/05/17 02:33:24;;;;;;;9.63;6.63;;;;;;;;;;5091806;28;20698;-55
2021/05/17 02:35:50;;;;;;;11.27;6.30;;;;;;;;;;5092237;28;20212;-56
2021/05/17 02:38:17;;;;;;;11.33;6.40;;;;;;;;;;5091990;28;20252;-54
2021/05/17 02:40:44;;;;;;;9.27;6.27;;;;;;;;;;5091801;28;20254;-56
2021/05/17 02:43:11;;;;;;;9.27;6.50;;;;;;;;;;5092000;28;20287;-57
2021/05/17 02:45:38;;;;;;;10.13;6.73;;;;;;;;;;5091984;28;20220;-56
2021/05/17 02:48:06;;;;;;;10.97;7.53;;;;;;;;;;5092476;28;20263;-54
2021/05/17 02:50:34;;;;;;;14.63;6.87;;;;;;;;;;5091915;28;20615;-54
2021/05/17 02:53:02;;;;;;;12.17;7.20;;;;;;;;;;5091955;28;20205;-54
2021/05/17 02:55:32;;;;;;;11.27;7.03;;;;;;;;;;5091740;28;20289;-54
2021/05/17 02:58:03;;;;;;;11.93;7.37;;;;;;;;;;5091893;28;20584;-56
2021/05/17 03:00:32;;;;;;;11.63;7.13;;;;;;;;;;5091598;28;20212;-53
2021/05/17 03:03:04;;;;;;;10.47;7.63;;;;;;;;;;5092178;28;20235;-53
2021/05/17 03:05:32;;;;;;;14.33;7.57;;;;;;;;;;5092032;28;20243;-54
2021/05/17 03:08:04;;;;;;;15.33;7.87;;;;;;;;;;5092024;28;20577;-55
2021/05/17 03:10:31;;;;;;;14.03;7.87;;;;;;;;;;5091825;28;20219;-55
2021/05/17 03:12:59;;;;;;;14.73;8.17;;;;;;;;;;5091691;28;20204;-54
2021/05/17 03:15:27;;;;;;;11.97;8.47;;;;;;;;;;5091727;28;20731;-52
2021/05/17 03:17:54;;;;;;;13.47;7.30;;;;;;;;;;5092052;28;20584;-55
2021/05/17 03:20:21;;;;;;;11.97;7.33;;;;;;;;;;5091905;28;20215;-55
2021/05/17 03:22:50;;;;;;;11.57;7.00;;;;;;;;;;5091702;28;20216;-57
2021/05/17 03:25:18;;;;;;;12.87;7.23;;;;;;;;;;5091766;28;20600;-57
2021/05/17 03:27:45;;;;;;;9.40;6.73;;;;;;;;;;5092118;28;20211;-56
2021/05/17 03:30:12;;;;;;;15.63;7.20;;;;;;;;;;5091622;28;20682;-55
2021/05/17 03:32:38;;;;;;;10.97;7.53;;;;;;;;;;5091769;28;20300;-51
2021/05/17 03:35:05;;;;;;;13.07;7.73;;;;;;;;;;5091494;28;20229;-52
2021/05/17 03:37:32;;;;;;;11.07;7.33;;;;;;;;;;5091649;28;20204;-52
2021/05/17 03:39:58;;;;;;;10.73;6.77;;;;;;;;;;5091438;28;20212;-54
2021/05/17 03:42:26;;;;;;;10.77;6.50;;;;;;;;;;5091580;28;20208;-55
2021/05/17 03:44:52;;;;;;;9.97;6.90;;;;;;;;;;5091486;28;20589;-52
2021/05/17 03:47:19;;;;;;;14.20;6.97;;;;;;;;;;5091458;28;20209;-52
2021/05/17 03:49:45;;;;;;;9.80;6.33;;;;;;;;;;5091441;28;20212;-51
2021/05/17 03:52:12;;;;;;;13.13;7.10;;;;;;;;;;5091316;28;20204;-56
2021/05/17 03:54:38;;;;;;;10.93;6.83;;;;;;;;;;5094557;28;20232;-55
2021/05/17 03:57:05;;;;;;;12.13;6.20;;;;;;;;;;5095290;28;20260;-52
2021/05/17 03:59:34;;;;;;;9.90;6.20;;;;;;;;;;5095104;28;20204;-50
2021/05/17 04:02:00;;;;;;;11.27;6.57;;;;;;;;;;5094943;28;20211;-52
2021/05/17 04:04:28;;;;;;;10.07;6.20;;;;;;;;;;5095110;28;20232;-50
2021/05/17 04:06:59;;;;;;;9.40;5.70;;;;;;;;;;5094709;28;20732;-53
2021/05/17 04:13:18;;;;;;;9.20;5.63;;;;;;;;;;5095094;28;20781;-52
2021/05/17 04:15:22;;;;;;;8.43;5.57;;;;;;;;;;5091522;28;20592;-52
2021/05/17 04:17:48;;;;;;;10.47;6.00;;;;;;;;;;5095243;28;20215;-58
2021/05/17 04:20:15;;;;;;;9.90;5.67;;;;;;;;;;5088564;28;20209;-58
2021/05/17 04:22:41;;;;;;;9.00;5.10;;;;;;;;;;5076431;28;20209;-54
2021/05/17 04:25:08;;;;;;;10.30;5.57;;;;;;;;;;5073613;28;20221;-59
2021/05/17 04:27:35;;;;;;;14.73;5.90;;;;;;;;;;5093250;28;20196;-60
2021/05/17 04:30:01;;;;;;;7.60;5.10;;;;;;;;;;5097002;28;20231;-59
2021/05/17 04:32:29;;;;;;;7.80;6.23;;;;;;;;;;5094594;28;20208;-58
2021/05/17 04:34:55;;;;;;;7.83;5.27;;;;;;;;;;5094265;28;20256;-59
2021/05/17 04:37:22;;;;;;;8.07;5.13;;;;;;;;;;5094335;28;20212;-54
2021/05/17 04:39:48;;;;;;;7.47;5.60;;;;;;;;;;5079595;28;20217;-55
2021/05/17 04:42:15;;;;;;;8.27;5.27;;;;;;;;;;5073830;28;20211;-57
2021/05/17 04:44:41;;;;;;;7.87;5.37;;;;;;;;;;5073632;28;20658;-56
2021/05/17 04:47:08;;;;;;;9.60;5.23;;;;;;;;;;5073996;28;20270;-53
2021/05/17 04:49:35;;;;;;;12.47;5.80;;;;;;;;;;5073797;28;20213;-56
2021/05/17 04:52:02;;;;;;;8.17;5.23;;;;;;;;;;5073612;28;20584;-57
2021/05/17 04:54:28;;;;;;;9.70;5.80;;;;;;;;;;5073321;28;20282;-56
2021/05/17 04:56:55;;;;;;;9.80;4.77;;;;;;;;;;5073678;28;20284;-55
2021/05/17 04:59:21;;;;;;;7.43;5.10;;;;;;;;;;5073434;28;20213;-56
2021/05/17 05:01:48;;;;;;;7.43;5.10;;;;;;;;;;5073461;28;20254;-58
2021/05/17 05:04:15;;;;;;;12.37;5.50;;;;;;;;;;5073298;28;20630;-57
2021/05/17 05:06:42;;;;;;;8.17;4.90;;;;;;;;;;5073349;28;20327;-55
2021/05/17 05:09:08;;;;;;;7.57;4.90;;;;;;;;;;5073414;28;20209;-56
2021/05/17 05:11:35;;;;;;;9.37;5.60;;;;;;;;;;5073011;28;20208;-57
2021/05/17 05:14:02;;;;;;;7.73;5.50;;;;;;;;;;5072672;28;20238;-61
2021/05/17 05:16:29;;;;;;;9.80;6.17;;;;;;;;;;5080911;28;20284;-62
2021/05/17 05:18:55;;;;;;;9.50;4.80;;;;;;;;;;5093474;28;20267;-61
2021/05/17 05:21:22;;;;;;;7.80;4.30;;;;;;;;;;5089453;28;20207;-61
2021/05/17 05:23:49;;;;;;;6.70;4.93;;;;;;;;;;5092875;28;20220;-61
2021/05/17 05:29:14;;;;;;;7.63;4.67;;;;;;;;;;5092928;28;20544;-60
2021/05/17 05:31:44;;;;;;;7.80;4.70;;;;;;;;;;5092348;28;20688;-59
2021/05/17 05:34:10;;;;;;;6.23;4.70;;;;;;;;;;5092605;28;20231;-59
2021/05/17 05:36:37;;;;;;;7.50;4.70;;;;;;;;;;5092323;28;20218;-61
2021/05/17 05:39:05;;;;;;;9.07;4.70;;;;;;;;;;5093138;28;20214;-60
2021/05/17 05:41:31;;;;;;;7.60;4.33;;;;;;;;;;5093117;28;20211;-65
2021/05/17 05:43:58;;;;;;;5.27;4.40;;;;;;;;;;5092793;28;20223;-60
2021/05/17 05:46:24;;;;;;;8.33;4.17;;;;;;;;;;5092505;28;20204;-64
2021/05/17 05:48:51;;;;;;;9.50;4.83;;;;;;;;;;5078091;28;20212;-64
2021/05/17 05:51:18;;;;;;;7.40;4.10;;;;;;;;;;5071588;28;20212;-60
2021/05/17 05:53:45;;;;;;;6.47;4.60;;;;;;;;;;5072296;28;20232;-60
2021/05/17 05:56:12;;;;;;;8.90;4.30;;;;;;;;;;5072178;28;20216;-55
2021/05/17 05:58:39;;;;;;;6.13;3.97;;;;;;;;;;5072239;28;20204;-59
2021/05/17 06:01:06;;;;;;;5.83;3.77;;;;;;;;;;5071677;28;20216;-58
2021/05/17 06:03:33;;;;;;;9.30;4.33;;;;;;;;;;5071723;28;20223;-58
2021/05/17 06:05:59;;;;;;;7.03;4.17;;;;;;;;;;5071838;28;20209;-60
2021/05/17 06:08:26;;;;;;;5.00;4.30;;;;;;;;;;5071821;28;20661;-60
2021/05/17 06:10:52;;;;;;;6.00;3.83;;;;;;;;;;5071787;28;20588;-59
2021/05/17 06:13:20;;;;;;;5.90;3.87;;;;;;;;;;5071852;28;20205;-56
2021/05/17 06:15:47;;;;;;;5.87;4.20;;;;;;;;;;5071233;28;20216;-58
2021/05/17 06:18:14;;;;;;;8.63;3.87;;;;;;;;;;5071533;28;20212;-63
2021/05/17 06:20:41;;;;;;;8.00;4.07;;;;;;;;;;5071264;28;20216;-64
2021/05/17 06:23:08;;;;;;;8.37;4.50;;;;;;;;;;5071832;28;20266;-63
2021/05/17 06:25:35;;;;;;;8.23;4.47;;;;;;;;;;5071736;28;20216;-64
2021/05/17 06:28:02;;;;;;;8.77;4.73;;;;;;;;;;5071952;28;20651;-62
2021/05/17 06:30:31;;;;;;;7.83;4.40;;;;;;;;;;5071494;28;20214;-62
2021/05/17 06:32:58;;;;;;;5.13;4.50;;;;;;;;;;5071505;28;20215;-59
2021/05/17 06:35:27;;;;;;;8.27;3.93;;;;;;;;;;5072002;28;20260;-63
2021/05/17 06:37:54;;;;;;;8.83;4.10;;;;;;;;;;5071725;28;20204;-60
2021/05/17 06:40:21;;;;;;;8.33;4.30;;;;;;;;;;5071113;28;20204;-59
2021/05/17 06:42:47;;;;;;;6.80;4.47;;;;;;;;;;5071440;28;20204;-59
2021/05/17 06:45:14;;;;;;;6.90;3.93;;;;;;;;;;5071391;28;20224;-61
2021/05/17 06:47:43;;;;;;;6.07;3.87;;;;;;;;;;5071362;28;20209;-65
2021/05/17 06:50:10;;;;;;;6.80;4.17;;;;;;;;;;5071253;28;20677;-64
2021/05/17 06:52:38;;;;;;;5.43;3.60;;;;;;;;;;5079500;28;20585;-60
2021/05/17 06:55:12;;;;;;;5.13;3.47;;;;;;;;;;5091558;28;20315;-53
2021/05/17 06:57:49;;;;;;;7.40;3.83;;;;;;;;;;5091568;28;20211;-58
2021/05/17 07:00:23;;;;;;;4.63;3.10;;;;;;;;;;5091406;28;20215;-58
2021/05/17 07:02:51;;;;;;;8.37;3.27;;;;;;;;;;5091504;28;20214;-65
2021/05/17 07:05:20;;;;;;;7.47;3.30;;;;;;;;;;5091612;28;20630;-56
2021/05/17 07:07:54;;;;;;;4.53;2.93;;;;;;;;;;5091423;28;20348;-57
2021/05/17 07:13:06;;;;;;;5.97;2.70;;;;;;;;;;5091471;28;20233;-54
2021/05/17 07:15:32;;;;;;;5.40;3.10;;;;;;;;;;5091399;28;20220;-57
2021/05/17 07:17:59;;;;;;;6.13;2.93;;;;;;;;;;5091472;28;20204;-52
2021/05/17 07:20:31;;;;;;;5.23;3.10;;;;;;;;;;5091092;28;20227;-53
2021/05/17 07:25:43;;;;;;;5.33;2.80;;;;;;;;;;5071189;28;20250;-57
2021/05/17 07:28:09;;;;;;;8.93;3.10;;;;;;;;;;5072639;28;20205;-60
2021/05/17 07:30:36;;;;;;;5.17;2.83;;;;;;;;;;5075285;28;20208;-52
2021/05/17 07:33:03;;;;;;;7.00;3.10;;;;;;;;;;5074805;28;20572;-54
2021/05/17 07:35:30;;;;;;;8.40;2.93;;;;;;;;;;5074272;28;20323;-55
2021/05/17 07:37:56;;;;;;;5.97;3.10;;;;;;;;;;5075076;28;20228;-64
2021/05/17 07:40:23;;;;;;;4.60;2.73;;;;;;;;;;5074231;28;20197;-60
2021/05/17 07:42:49;;;;;;;3.53;2.70;;;;;;;;;;5074588;28;20319;-65
2021/05/17 07:45:16;;;;;;;5.60;2.63;;;;;;;;;;5074758;28;20625;-64
2021/05/17 07:47:42;;;;;;;3.13;2.23;;;;;;;;;;5074213;28;20223;-65
2021/05/17 07:50:11;;;;;;;6.63;2.63;;;;;;;;;;5074803;28;20217;-64
2021/05/17 07:52:38;;;;;;;4.70;2.50;;;;;;;;;;5074651;28;20209;-64
2021/05/17 07:55:05;;;;;;;5.00;2.33;;;;;;;;;;5090036;22;20325;-64
2021/05/17 07:57:31;;;;;;;4.67;2.50;;;;;;;;;;5074761;28;20254;-65
2021/05/17 07:59:58;;;;;;;5.00;2.30;;;;;;;;;;5074297;28;20662;-64
2021/05/17 08:02:24;;;;;;;5.43;2.43;;;;;;;;;;5074020;28;20216;-65
2021/05/17 08:04:51;;;;;;;4.40;2.53;;;;;;;;;;5058128;28;20232;-70
2021/05/17 08:07:19;;;;;;;5.70;2.90;;;;;;;;;;5054761;28;20202;-66
2021/05/17 08:09:45;;;;;;;7.47;3.50;;;;;;;;;;5054296;28;20205;-66
2021/05/17 08:12:12;;;;;;;7.23;4.37;;;;;;;;;;5053987;28;20217;-66
2021/05/17 08:14:39;;;;;;;5.33;4.03;;;;;;;;;;5053810;28;20229;-70
2021/05/17 08:17:06;;;;;;;7.17;3.80;;;;;;;;;;5054430;28;20209;-69
2021/05/17 08:19:33;;;;;;;5.07;3.70;;;;;;;;;;5054726;28;20202;-69
2021/05/17 08:21:59;;;;;;;9.20;4.43;;;;;;;;;;5053833;28;20233;-66
2021/05/17 08:24:27;;;;;;;6.27;4.17;;;;;;;;;;5053842;28;20233;-68
2021/05/17 08:26:54;;;;;;;6.00;4.10;;;;;;;;;;5054093;28;20750;-67
2021/05/17 08:29:21;;;;;;;5.00;3.50;;;;;;;;;;5055143;28;20210;-63
2021/05/17 08:31:50;;;;;;;9.17;3.90;;;;;;;;;;5062940;28;20195;-68
2021/05/17 08:34:17;;;;;;;7.23;3.77;;;;;;;;;;5183220;22;20316;-65
2021/05/17 08:36:43;;;;;;;6.97;3.03;;;;;;;;;;5136484;27;20282;-64
2021/05/17 08:39:10;;;;;;;4.03;2.93;;;;;;;;;;5144729;27;20672;-64
2021/05/17 08:41:38;;;;;;;8.37;3.00;;;;;;;;;;5153097;27;20210;-64
2021/05/17 08:44:05;;;;;;;5.63;2.63;;;;;;;;;;5153388;27;20245;-64
2021/05/17 08:46:31;;;;;;;6.93;2.37;;;;;;;;;;5136843;27;20210;-63
2021/05/17 08:48:58;;;;;;;4.30;2.00;;;;;;;;;;5135319;27;20206;-67
2021/05/17 08:51:25;;;;;;;4.87;2.47;;;;;;;;;;5134779;27;20209;-66
2021/05/17 08:53:53;;;;;;;5.97;2.40;;;;;;;;;;5142444;22;20627;-65
2021/05/17 08:56:20;;;;;;;6.70;2.70;;;;;;;;;;5073621;28;20204;-66
2021/05/17 08:58:47;;;;;;;4.67;1.70;;;;;;;;;;5073099;28;20201;-65
2021/05/17 09:01:14;;;;;;;3.40;1.70;;;;;;;;;;5072826;28;20209;-64
2021/05/17 09:03:41;;;;;;;2.83;1.40;;;;;;;;;;5073299;28;20595;-64
2021/05/17 09:06:08;;;;;;;2.90;1.70;;;;;;;;;;5073314;28;20213;-65
2021/05/17 09:08:41;;;;;;;4.17;1.50;;;;;;;;;;5073346;28;20219;-64
2021/05/17 09:11:07;;;;;;;5.13;1.27;;;;;;;;;;5072752;28;20274;-65
2021/05/17 09:13:34;;;;;;;4.93;1.90;;;;;;;;;;5072940;28;20229;-71
2021/05/17 09:16:02;;;;;;;4.50;1.63;;;;;;;;;;5072872;28;20201;-71
2021/05/17 09:18:30;;;;;;;5.60;1.80;;;;;;;;;;5073075;28;20295;-64
2021/05/17 09:20:58;;;;;;;4.03;1.60;;;;;;;;;;5072702;28;20210;-63
2021/05/17 09:23:26;;;;;;;5.37;2.10;;;;;;;;;;5072803;28;20208;-64
2021/05/17 09:25:58;;;;;;;2.83;1.83;;;;;;;;;;5072686;28;20619;-64
2021/05/17 09:28:25;;;;;;;4.23;1.60;;;;;;;;;;5072861;28;20263;-64
2021/05/17 09:30:52;;;;;;;4.93;2.27;;;;;;;;;;5072279;28;20707;-64
2021/05/17 09:33:22;;;;;;;5.87;2.00;;;;;;;;;;5072742;28;20206;-64
2021/05/17 09:35:49;;;;;;;5.60;1.80;;;;;;;;;;5072751;28;20275;-64
2021/05/17 09:38:20;;;;;;;4.67;1.87;;;;;;;;;;5072444;28;20302;-64
2021/05/17 09:40:47;;;;;;;6.60;1.90;;;;;;;;;;5073719;28;20284;-67
2021/05/17 09:43:16;;;;;;;4.33;2.10;;;;;;;;;;5073156;28;20639;-68
2021/05/17 09:45:43;;;;;;;3.17;2.60;;;;;;;;;;5072740;28;20201;-68
2021/05/17 09:48:10;;;;;;;6.00;2.30;;;;;;;;;;5072438;28;20204;-69
2021/05/17 09:51:12;;;;;;;4.60;2.03;;;;;;;;;;5071151;28;20662;-62
2021/05/17 09:53:41;;;;;;;2.77;1.97;;;;;;;;;;4990706;28;20231;-63
2021/05/17 09:56:08;;;;;;;4.47;2.10;;;;;;;;;;4990450;28;20593;-63
2021/05/17 09:58:36;;;;;;;5.77;2.10;;;;;;;;;;5029352;28;20743;-63
2021/05/17 10:01:10;;;;;;;8.67;2.50;;;;;;;;;;5071705;28;20577;-63
2021/05/17 10:03:40;;;;;;;6.27;2.37;;;;;;;;;;5072023;28;20315;-64
2021/05/17 10:06:09;;;;;;;2.27;1.80;;;;;;;;;;5072086;28;20236;-63
2021/05/17 10:08:35;;;;;;;3.63;1.87;;;;;;;;;;5071890;28;20206;-63
2021/05/17 10:11:03;;;;;;;3.83;1.83;;;;;;;;;;5071428;28;20207;-63
2021/05/17 10:13:34;;;;;;;2.97;1.60;;;;;;;;;;5071503;28;20227;-68
2021/05/17 10:16:02;;;;;;;3.20;1.97;;;;;;;;;;5071735;28;20209;-63
2021/05/17 10:18:29;;;;;;;4.40;1.57;;;;;;;;;;5071971;28;20216;-63
2021/05/17 10:20:56;;;;;;;2.60;1.30;;;;;;;;;;5071517;28;20239;-63
2021/05/17 10:23:23;;;;;;;3.63;1.40;;;;;;;;;;5071835;28;20215;-63
2021/05/17 10:25:50;;;;;;;1.57;1.13;;;;;;;;;;5071624;28;20205;-63
2021/05/17 10:28:18;;;;;;;3.00;1.70;;;;;;;;;;5071552;28;20576;-63
2021/05/17 10:30:45;;;;;;;4.80;1.60;;;;;;;;;;5071283;28;20209;-63
2021/05/17 10:33:14;;;;;;;2.60;1.40;;;;;;;;;;5071696;28;20575;-63
2021/05/17 10:35:48;;;;;;;3.80;1.60;;;;;;;;;;5071415;28;20228;-66
2021/05/17 10:38:22;;;;;;;3.90;1.20;;;;;;;;;;5071719;28;20233;-63
2021/05/17 10:40:51;;;;;;;3.47;1.30;;;;;;;;;;5071008;28;20243;-60
2021/05/17 10:43:37;;;;;;;2.80;1.30;;;;;;;;;;5071266;28;20252;-61
2021/05/17 10:49:09;;;;;;;3.10;1.30;;;;;;;;;;5071462;28;20211;-62
2021/05/17 10:51:35;;;;;;;3.67;1.53;;;;;;;;;;5071087;28;20262;-62
2021/05/17 10:54:02;;;;;;;3.20;1.40;;;;;;;;;;5071201;28;20228;-61
2021/05/17 10:56:45;;;;;;;3.57;1.43;;;;;;;;;;5071692;28;20204;-64
2021/05/17 11:01:58;;;;;;;5.33;1.53;;;;;;;;;;5072517;28;20223;-63
2021/05/17 11:04:26;;;;;;;3.53;1.40;;;;;;;;;;5075680;28;20221;-63
2021/05/17 11:07:11;;;;;;;2.60;1.50;;;;;;;;;;5075421;28;20200;-62
2021/05/17 11:09:40;;;;;;;1.03;0.50;;;;;;;;;;5075426;28;20244;-64
2021/05/17 11:12:18;;;;;;;2.87;0.83;;;;;;;;;;5074697;28;20216;-57
2021/05/17 11:15:00;;;;;;;1.37;0.73;;;;;;;;;;5075681;28;20286;-53
2021/05/17 11:17:27;;;;;;;2.00;1.00;;;;;;;;;;5075359;28;20240;-65
2021/05/17 11:19:53;;;;;;;6.77;3.73;;;;;;;;;;5075091;28;20234;-63
2021/05/17 11:22:20;;;;;;;1.33;0.93;;;;;;;;;;5074766;28;20208;-61
2021/05/17 11:24:47;;;;;;;3.40;0.87;;;;;;;;;;5074766;28;20250;-59
2021/05/17 11:27:14;;;;;;;6.77;1.00;;;;;;;;;;5075243;28;20212;-58
2021/05/17 11:29:41;;;;;;;5.23;1.30;;;;;;;;;;5074960;28;20223;-61
2021/05/17 11:32:08;;;;;;;2.00;1.17;;;;;;;;;;5074665;28;20265;-59
2021/05/17 11:34:36;;;;;;;1.60;1.10;;;;;;;;;;5054369;28;20639;-63
2021/05/17 11:37:11;;;;;;;5.57;1.27;;;;;;;;;;5055421;28;20205;-63
2021/05/17 11:39:39;;;;;;;2.97;1.13;;;;;;;;;;5054948;28;20704;-63
2021/05/17 11:42:06;;;;;;;2.73;0.90;;;;;;;;;;5059606;28;20625;-65
2021/05/17 11:44:35;;;;;;;2.70;1.20;;;;;;;;;;5064269;28;20221;-65
2021/05/17 11:47:04;;;;;;;3.00;0.90;;;;;;;;;;5057685;28;20669;-60
2021/05/17 11:49:32;;;;;;;2.70;0.90;;;;;;;;;;5074250;28;20205;-59
2021/05/17 11:52:00;;;;;;;2.10;0.90;;;;;;;;;;5074304;28;20205;-62
2021/05/17 11:54:29;;;;;;;2.13;1.20;;;;;;;;;;5074454;28;20228;-62
2021/05/17 11:57:00;;;;;;;3.67;1.10;;;;;;;;;;5074274;28;20214;-64
2021/05/17 11:59:27;;;;;;;5.33;1.37;;;;;;;;;;5074371;28;20245;-64
2021/05/17 12:01:54;;;;;;;1.17;0.90;;;;;;;;;;5073960;28;20211;-64
2021/05/17 12:04:21;;;;;;;1.93;0.90;;;;;;;;;;5074712;28;20850;-60
2021/05/17 12:06:50;;;;;;;5.10;0.90;;;;;;;;;;5074473;28;20233;-62
2021/05/17 12:09:27;;;;;;;2.00;1.10;;;;;;;;;;5074117;28;20224;-62
2021/05/17 12:11:54;;;;;;;2.80;0.97;;;;;;;;;;5074090;28;20356;-62
2021/05/17 12:14:20;;;;;;;2.23;1.10;;;;;;;;;;5073116;28;20224;-63
2021/05/17 12:16:58;;;;;;;4.37;1.20;;;;;;;;;;5073958;28;20205;-64
2021/05/17 12:19:25;;;;;;;2.07;1.13;;;;;;;;;;5074216;28;20226;-64
2021/05/17 12:21:56;;;;;;;1.20;0.70;;;;;;;;;;5073677;28;20269;-64
2021/05/17 12:24:27;;;;;;;1.93;1.27;;;;;;;;;;5074073;28;20217;-59
2021/05/17 12:26:55;;;;;;;2.73;0.87;;;;;;;;;;5073883;28;20250;-59
2021/05/17 12:29:23;;;;;;;1.13;0.70;;;;;;;;;;5074191;28;20211;-61
2021/05/17 12:31:49;;;;;;;2.77;0.77;;;;;;;;;;5073777;28;20209;-59
2021/05/17 12:34:16;;;;;;;0.70;0.60;;;;;;;;;;5074021;28;20597;-59
2021/05/17 12:36:43;;;;;;;0.93;0.60;;;;;;;;;;5074729;28;20205;-62
2021/05/17 12:39:16;;;;;;;2.10;0.70;;;;;;;;;;5076189;28;20693;-60
2021/05/17 12:41:43;;;;;;;0.70;0.47;;;;;;;;;;5074057;28;20579;-60
2021/05/17 12:44:30;;;;;;;1.67;0.80;;;;;;;;;;5073855;28;20228;-56
2021/05/17 12:47:07;;;;;;;1.50;0.80;;;;;;;;;;5081678;28;20210;-61
2021/05/17 12:49:44;;;;;;;2.23;0.80;;;;;;;;;;5081046;28;20208;-61
2021/05/17 12:52:11;;;;;;;1.60;0.93;;;;;;;;;;5076311;28;20201;-59
2021/05/17 12:54:37;;;;;;;2.47;1.17;;;;;;;;;;5073630;28;20237;-61
2021/05/17 12:57:11;;;;;;;2.43;1.47;;;;;;;;;;5073394;28;20258;-58
2021/05/17 12:59:47;;;;;;;2.03;1.20;;;;;;;;;;5073571;28;20235;-59
2021/05/17 13:02:14;;;;;;;3.33;1.60;;;;;;;;;;5072698;28;20681;-59
2021/05/17 13:04:40;;;;;;;2.83;2.20;;;;;;;;;;5073441;28;20266;-64
2021/05/17 13:07:07;;;;;;;2.70;2.30;;;;;;;;;;5073347;28;20205;-64
2021/05/17 13:09:34;;;;;;;3.73;2.30;;;;;;;;;;5073378;28;20209;-65
2021/05/17 13:12:01;;;;;;;3.70;2.77;;;;;;;;;;5072804;28;20209;-64
2021/05/17 13:14:28;;;;;;;3.53;3.20;;;;;;;;;;5072855;28;20221;-64
2021/05/17 13:17:01;;;;;;;4.80;3.33;;;;;;;;;;5073288;28;20209;-65
2021/05/17 13:22:36;;;;;;;5.07;3.00;;;;;;;;;;5070291;28;20708;-59
2021/05/17 13:30:41;;;;;;;5.07;3.40;;;;;;;;;;5059655;28;20196;-62
2021/05/17 13:33:09;;;;;;;7.60;3.17;;;;;;;;;;5073108;28;20211;-62
2021/05/17 13:35:35;;;;;;;3.17;2.80;;;;;;;;;;5072475;28;20223;-61
2021/05/17 13:38:02;;;;;;;3.47;2.70;;;;;;;;;;5072429;28;20622;-61
2021/05/17 13:40:29;;;;;;;4.73;2.63;;;;;;;;;;5072071;28;20204;-62
2021/05/17 13:42:55;;;;;;;3.57;2.60;;;;;;;;;;5072479;28;20205;-62
2021/05/17 13:45:22;;;;;;;5.37;3.60;;;;;;;;;;5072943;28;20642;-61
2021/05/17 13:47:49;;;;;;;3.50;2.63;;;;;;;;;;5068714;28;20220;-65
2021/05/17 13:50:17;;;;;;;4.93;2.53;;;;;;;;;;5052352;28;20666;-59
2021/05/17 13:52:44;;;;;;;5.63;3.13;;;;;;;;;;5052333;28;20213;-55
2021/05/17 13:55:11;;;;;;;7.83;3.60;;;;;;;;;;5052550;28;20236;-59
2021/05/17 13:57:38;;;;;;;5.67;3.47;;;;;;;;;;5052436;28;20241;-62
2021/05/17 14:00:05;;;;;;;4.80;3.43;;;;;;;;;;5051971;28;20206;-60
2021/05/17 14:02:31;;;;;;;4.23;3.57;;;;;;;;;;5051869;28;20202;-59
2021/05/17 14:04:58;;;;;;;4.43;3.53;;;;;;;;;;5051519;28;20225;-58
2021/05/17 14:07:25;;;;;;;5.80;3.80;;;;;;;;;;5052109;28;20224;-58
2021/05/17 14:09:52;;;;;;;5.63;4.17;;;;;;;;;;5052071;28;20215;-61
2021/05/17 14:12:18;;;;;;;6.43;4.20;;;;;;;;;;5051162;28;20556;-60
2021/05/17 14:14:45;;;;;;;6.10;4.57;;;;;;;;;;5051690;28;20278;-64
2021/05/17 14:17:11;;;;;;;7.20;5.40;;;;;;;;;;5051708;28;20205;-64
2021/05/17 14:19:38;;;;;;;8.23;5.23;;;;;;;;;;5051716;28;20275;-59
2021/05/17 14:22:06;;;;;;;7.37;5.47;;;;;;;;;;5051568;28;20212;-62
2021/05/17 14:24:34;;;;;;;7.20;5.23;;;;;;;;;;5051958;28;20250;-61
2021/05/17 14:27:00;;;;;;;11.73;5.70;;;;;;;;;;5052000;28;20558;-61
2021/05/17 14:29:27;;;;;;;8.67;5.83;;;;;;;;;;5051565;28;20255;-60
2021/05/17 14:31:53;;;;;;;7.33;5.80;;;;;;;;;;5051322;28;20217;-61
2021/05/17 14:34:20;;;;;;;9.20;6.73;;;;;;;;;;5051191;28;20710;-60
2021/05/17 14:36:46;;;;;;;10.30;7.13;;;;;;;;;;5051143;28;20209;-60
2021/05/17 14:39:13;;;;;;;8.20;6.80;;;;;;;;;;5051855;28;20210;-60
2021/05/17 14:41:41;;;;;;;8.63;7.30;;;;;;;;;;5051266;28;20213;-60
2021/05/17 14:44:08;;;;;;;11.30;7.33;;;;;;;;;;5051884;28;20316;-62
2021/05/17 14:46:34;;;;;;;11.60;9.07;;;;;;;;;;5051452;28;20236;-64
2021/05/17 14:49:01;;;;;;;11.17;9.23;;;;;;;;;;5051393;28;20213;-59
2021/05/17 14:51:27;;;;;;;13.27;9.67;;;;;;;;;;5051120;28;20213;-64
2021/05/17 14:53:55;;;;;;;15.70;11.37;;;;;;;;;;5050860;28;20236;-66
2021/05/17 14:56:22;;;;;;;16.47;12.20;;;;;;;;;;5051248;28;20210;-65
2021/05/17 14:58:49;;;;;;;12.83;11.17;;;;;;;;;;5050975;28;20337;-66
2021/05/17 15:01:15;;;;;;;13.13;11.73;;;;;;;;;;5050703;28;20674;-62
2021/05/17 15:03:43;;;;;;;13.80;12.00;;;;;;;;;;5051374;28;20229;-62
2021/05/17 15:06:10;;;;;;;14.40;11.77;;;;;;;;;;5051247;28;20298;-60
2021/05/17 15:08:37;;;;;;;18.40;12.87;;;;;;;;;;5051372;28;20218;-59